Vyborg, Russia
Current Conditions -  °F | °C
As of 7:50 PM on Thursday 23 Oct 2014 (Local Time) from EFLP Reporting Station
Overcast Overcast  
Wind Chill: 27°   Ceiling: 3000
Heat Index: 27°   Visibility: 6mi
Dew Point: 18°   Wind: 3mph
Humidity: 69%   Direction: 90°E
Pressure: 30.59"   Gusts: NA
Location:  60.7°N, 28.75°E
Report Text: EFLP 231650Z AUTO 09003KT 9999 OVC030 M03/M08 Q1036
Loading
Personal Weather Stations






























Interactive Weather Map
Tropical Storm Tracking
New forecast layout! Learn more

10-Day Weather Forecast

Advertisements
Track Severe Weather on mobile